createdAt,value
2018-09-23T00:01:54.427Z,9.40
2018-09-23T00:04:23.094Z,9.50
2018-09-23T00:06:51.781Z,9.27
2018-09-23T00:09:20.468Z,10.13
2018-09-23T00:11:49.437Z,9.17
2018-09-23T00:14:18.092Z,9.67
2018-09-23T00:16:46.384Z,10.63
2018-09-23T00:19:15.088Z,10.70
2018-09-23T00:21:43.468Z,10.80
2018-09-23T00:24:12.173Z,10.40
2018-09-23T00:26:40.843Z,9.93
2018-09-23T00:29:09.520Z,10.07
2018-09-23T00:31:38.186Z,9.63
2018-09-23T00:34:06.847Z,10.40
2018-09-23T00:36:35.536Z,10.40
2018-09-23T00:39:05.700Z,10.83
2018-09-23T00:41:34.385Z,10.90
2018-09-23T00:44:03.105Z,10.93
2018-09-23T00:46:31.431Z,11.70
2018-09-23T00:49:00.110Z,10.67
2018-09-23T00:51:28.824Z,11.83
2018-09-23T00:53:57.517Z,11.00
2018-09-23T00:56:26.184Z,11.83
2018-09-23T00:58:54.937Z,12.13
2018-09-23T01:01:23.596Z,11.77
2018-09-23T01:03:52.301Z,12.70
2018-09-23T01:06:20.965Z,14.97
2018-09-23T01:08:49.655Z,17.37
2018-09-23T01:11:18.293Z,18.83
2018-09-23T01:13:46.960Z,18.13
2018-09-23T01:16:15.670Z,18.80
2018-09-23T01:18:44.342Z,17.60
2018-09-23T01:21:13.038Z,19.10
2018-09-23T01:23:41.715Z,19.30
2018-09-23T01:26:10.469Z,18.80
2018-09-23T01:28:38.753Z,19.47
2018-09-23T01:31:07.485Z,18.40
2018-09-23T01:33:36.253Z,19.47
2018-09-23T01:36:04.906Z,19.50
2018-09-23T01:38:33.641Z,20.63
2018-09-23T01:41:02.292Z,18.50
2018-09-23T01:43:30.961Z,19.97
2018-09-23T01:45:59.628Z,18.37
2018-09-23T01:48:28.289Z,18.20
2018-09-23T01:50:57.043Z,19.70
2018-09-23T01:53:25.722Z,18.97
2018-09-23T01:55:54.083Z,18.37
2018-09-23T01:58:22.769Z,18.63
2018-09-23T02:00:51.459Z,18.20
2018-09-23T02:03:20.217Z,18.80
2018-09-23T02:05:48.927Z,19.80
2018-09-23T02:08:17.628Z,19.60
2018-09-23T02:10:46.342Z,20.77
2018-09-23T02:13:15.027Z,21.07
2018-09-23T02:15:43.695Z,20.93
2018-09-23T02:18:12.398Z,20.70
2018-09-23T02:20:41.045Z,21.10
2018-09-23T02:23:09.692Z,21.57
2018-09-23T02:25:38.381Z,23.57
2018-09-23T02:28:07.085Z,21.17
2018-09-23T02:30:35.780Z,21.53
2018-09-23T02:33:04.435Z,22.33
2018-09-23T02:35:32.809Z,21.23
2018-09-23T02:38:01.489Z,20.53
2018-09-23T02:40:30.215Z,20.77
2018-09-23T02:42:58.853Z,21.00
2018-09-23T02:45:27.176Z,21.93
2018-09-23T02:47:55.856Z,21.47
2018-09-23T02:50:24.577Z,21.87
2018-09-23T02:52:53.374Z,19.93
2018-09-23T02:55:22.032Z,20.57
2018-09-23T02:57:50.719Z,19.70
2018-09-23T03:00:19.457Z,20.60
2018-09-23T03:02:48.138Z,18.90
2018-09-23T03:05:16.473Z,22.87
2018-09-23T03:07:45.153Z,20.57
2018-09-23T03:10:13.930Z,20.13
2018-09-23T03:12:42.264Z,19.70
2018-09-23T03:15:10.934Z,19.47
2018-09-23T03:17:39.610Z,19.00
2018-09-23T03:20:07.939Z,18.40
2018-09-23T03:22:36.535Z,17.67
2018-09-23T03:25:04.846Z,18.27
2018-09-23T03:27:33.517Z,18.70
2018-09-23T03:30:02.339Z,17.63
2018-09-23T03:32:31.090Z,17.43
2018-09-23T03:34:59.745Z,19.80
2018-09-23T03:37:28.415Z,17.27
2018-09-23T03:39:57.084Z,18.37
2018-09-23T03:42:25.915Z,16.90
2018-09-23T03:44:54.589Z,17.37
2018-09-23T03:47:23.265Z,16.20
2018-09-23T03:49:51.934Z,15.97
2018-09-23T03:52:27.114Z,17.23
2018-09-23T03:54:55.797Z,16.03
2018-09-23T03:57:24.622Z,16.00
2018-09-23T03:59:52.976Z,15.00
2018-09-23T04:02:21.618Z,15.43
2018-09-23T04:04:50.272Z,14.97
2018-09-23T04:07:18.974Z,15.50
2018-09-23T04:09:47.659Z,15.23
2018-09-23T04:12:16.378Z,14.67
2018-09-23T04:14:45.008Z,18.43
2018-09-23T04:17:13.701Z,16.40
2018-09-23T04:19:42.349Z,16.63
2018-09-23T04:22:11.102Z,15.90
2018-09-23T04:24:39.759Z,17.20
2018-09-23T04:27:08.450Z,19.53
2018-09-23T04:29:36.810Z,19.10
2018-09-23T04:32:05.174Z,17.33
2018-09-23T04:34:33.899Z,18.37
2018-09-23T04:37:02.220Z,18.10
2018-09-23T04:39:30.553Z,18.43
2018-09-23T04:41:59.234Z,15.40
2018-09-23T04:44:27.879Z,15.83
2018-09-23T04:46:56.553Z,16.90
2018-09-23T04:49:24.981Z,15.30
2018-09-23T04:51:53.350Z,15.07
2018-09-23T04:54:22.000Z,16.03
2018-09-23T04:56:50.681Z,15.33
2018-09-23T04:59:19.377Z,14.90
2018-09-23T05:01:48.034Z,13.83
2018-09-23T05:04:16.730Z,16.50
2018-09-23T05:06:45.417Z,16.07
2018-09-23T05:09:14.068Z,14.17
2018-09-23T05:11:42.755Z,14.50
2018-09-23T05:14:11.363Z,13.90
2018-09-23T05:16:40.130Z,12.87
2018-09-23T05:19:08.867Z,14.37
2018-09-23T05:21:37.604Z,13.80
2018-09-23T05:24:06.309Z,13.90
2018-09-23T05:26:34.608Z,12.67
2018-09-23T05:29:03.287Z,14.50
2018-09-23T05:31:31.973Z,15.60
2018-09-23T05:34:00.667Z,15.13
2018-09-23T05:36:29.365Z,15.50
2018-09-23T05:38:58.013Z,17.73
2018-09-23T05:41:26.373Z,15.33
2018-09-23T05:43:55.133Z,14.17
2018-09-23T05:46:23.835Z,12.60
2018-09-23T05:48:52.515Z,12.93
2018-09-23T05:51:21.245Z,12.10
2018-09-23T05:53:49.931Z,12.17
2018-09-23T05:56:18.601Z,13.93
2018-09-23T05:58:47.308Z,12.63
2018-09-23T06:01:16.027Z,11.80
2018-09-23T06:03:44.673Z,11.57
2018-09-23T06:06:12.964Z,11.97
2018-09-23T06:08:41.669Z,11.77
2018-09-23T06:11:10.409Z,11.63
2018-09-23T06:13:39.047Z,11.47
2018-09-23T06:16:07.769Z,11.63
2018-09-23T06:18:36.422Z,13.10
2018-09-23T06:21:05.104Z,12.13
2018-09-23T06:23:33.793Z,11.60
2018-09-23T06:26:02.436Z,13.00
2018-09-23T06:28:31.170Z,12.33
2018-09-23T06:30:59.830Z,12.00
2018-09-23T06:33:28.484Z,11.47
2018-09-23T06:35:57.153Z,10.87
2018-09-23T06:38:25.816Z,11.47
2018-09-23T06:40:54.554Z,10.90
2018-09-23T06:43:23.430Z,10.67
2018-09-23T06:45:51.813Z,10.33
2018-09-23T06:48:20.469Z,10.53
2018-09-23T06:50:49.416Z,9.83
2018-09-23T06:53:18.125Z,10.77
2018-09-23T06:55:46.808Z,12.83
2018-09-23T06:58:15.494Z,11.50
2018-09-23T07:00:44.229Z,10.27
2018-09-23T07:03:12.885Z,11.27
2018-09-23T07:05:41.535Z,9.90
2018-09-23T07:08:09.824Z,10.60
2018-09-23T07:10:38.515Z,10.03
2018-09-23T07:13:07.189Z,9.93
2018-09-23T07:15:35.826Z,9.73
2018-09-23T07:18:04.580Z,10.23
2018-09-23T07:20:33.303Z,10.27
2018-09-23T07:23:01.971Z,8.90
2018-09-23T07:25:30.620Z,8.40
2018-09-23T07:27:58.915Z,8.87
2018-09-23T07:30:27.630Z,8.10
2018-09-23T07:32:55.899Z,9.13
2018-09-23T07:35:24.962Z,8.60
2018-09-23T07:37:53.704Z,7.77
2018-09-23T07:40:22.370Z,7.60
2018-09-23T07:42:51.072Z,7.33
2018-09-23T07:45:19.957Z,6.40
2018-09-23T07:47:48.625Z,7.57
2018-09-23T07:50:17.341Z,8.50
2018-09-23T07:52:45.720Z,7.97
2018-09-23T07:55:14.412Z,9.20
2018-09-23T07:57:43.448Z,8.37
2018-09-23T08:00:12.119Z,8.13
2018-09-23T08:02:40.797Z,8.67
2018-09-23T08:05:09.458Z,9.30
2018-09-23T08:07:38.311Z,8.13
2018-09-23T08:10:06.983Z,9.23
2018-09-23T08:12:35.708Z,8.77
2018-09-23T08:15:04.538Z,9.03
2018-09-23T08:17:33.105Z,8.63
2018-09-23T08:20:01.945Z,9.63
2018-09-23T08:22:30.573Z,8.90
2018-09-23T08:24:59.244Z,8.33
2018-09-23T08:27:27.972Z,8.90
2018-09-23T08:29:57.199Z,8.40
2018-09-23T08:32:25.533Z,7.90
2018-09-23T08:34:53.861Z,7.20
2018-09-23T08:37:22.632Z,7.37
2018-09-23T08:39:51.332Z,8.90
2018-09-23T08:42:20.080Z,8.83
2018-09-23T08:44:48.762Z,7.93
2018-09-23T08:47:17.429Z,7.43
2018-09-23T08:49:46.091Z,7.70
2018-09-23T08:52:14.650Z,8.03
2018-09-23T08:54:43.300Z,7.73
2018-09-23T08:57:11.993Z,7.27
2018-09-23T08:59:40.677Z,8.47
2018-09-23T09:02:09.322Z,8.07
2018-09-23T09:04:37.986Z,7.67
2018-09-23T09:07:06.707Z,7.67
2018-09-23T09:09:35.412Z,7.90
2018-09-23T09:12:04.070Z,8.17
2018-09-23T09:14:32.742Z,8.40
2018-09-23T09:17:01.460Z,8.27
2018-09-23T09:19:30.162Z,8.10
2018-09-23T09:21:58.821Z,8.13
2018-09-23T09:24:27.505Z,8.30
2018-09-23T09:26:56.254Z,8.13
2018-09-23T09:29:24.939Z,7.93
2018-09-23T09:31:53.617Z,7.77
2018-09-23T09:34:22.281Z,10.00
2018-09-23T09:36:50.948Z,8.77
2018-09-23T09:39:19.590Z,8.63
2018-09-23T09:41:47.947Z,9.17
2018-09-23T09:44:16.730Z,8.57
2018-09-23T09:46:45.406Z,9.60
2018-09-23T09:49:14.436Z,10.33
2018-09-23T09:51:43.084Z,9.30
2018-09-23T09:54:11.784Z,9.80
2018-09-23T09:56:40.500Z,9.53
2018-09-23T09:59:09.505Z,9.90
2018-09-23T10:01:38.187Z,9.53
2018-09-23T10:04:06.985Z,8.97
2018-09-23T10:06:35.347Z,8.80
2018-09-23T10:09:05.269Z,9.17
2018-09-23T10:11:34.029Z,10.53
2018-09-23T10:14:02.712Z,9.63
2018-09-23T10:16:31.370Z,10.17
2018-09-23T10:18:59.703Z,10.83
2018-09-23T10:21:28.059Z,10.97
2018-09-23T10:23:56.839Z,10.20
2018-09-23T10:26:25.495Z,10.10
2018-09-23T10:28:54.199Z,9.60
2018-09-23T10:31:22.987Z,9.50
2018-09-23T10:33:51.234Z,10.03
2018-09-23T10:36:19.911Z,9.80
2018-09-23T10:38:48.549Z,9.70
2018-09-23T10:41:17.276Z,9.23
2018-09-23T10:43:45.631Z,9.10
2018-09-23T10:46:14.291Z,8.47
2018-09-23T10:48:42.628Z,8.40
2018-09-23T10:51:11.289Z,9.43
2018-09-23T10:53:39.953Z,8.30
2018-09-23T10:56:08.712Z,9.03
2018-09-23T10:58:37.454Z,8.83
2018-09-23T11:01:06.179Z,9.83
2018-09-23T11:03:34.927Z,9.47
2018-09-23T11:06:03.679Z,10.47
2018-09-23T11:08:32.430Z,10.30
2018-09-23T11:11:01.082Z,14.50
2018-09-23T11:13:29.745Z,13.23
2018-09-23T11:15:58.463Z,13.00
2018-09-23T11:18:26.850Z,10.63
2018-09-23T11:20:55.203Z,10.37
2018-09-23T11:23:23.680Z,10.37
2018-09-23T11:25:52.280Z,9.60
2018-09-23T11:28:21.016Z,10.23
2018-09-23T11:30:50.100Z,10.43
2018-09-23T11:33:18.834Z,10.57
2018-09-23T11:35:47.994Z,12.07
2018-09-23T11:38:16.824Z,11.73
2018-09-23T11:40:45.175Z,13.13
2018-09-23T11:43:14.082Z,12.23
2018-09-23T11:45:43.050Z,14.20
2018-09-23T11:48:11.922Z,12.43
2018-09-23T11:50:40.722Z,13.97
2018-09-23T11:53:09.562Z,13.13
2018-09-23T11:55:38.281Z,13.23
2018-09-23T11:58:06.993Z,13.57
2018-09-23T12:00:35.712Z,13.37
2018-09-23T12:03:04.031Z,12.80
2018-09-23T12:05:32.909Z,13.53
2018-09-23T12:08:01.741Z,12.90
2018-09-23T12:10:30.290Z,14.13
2018-09-23T12:12:59.075Z,16.37
2018-09-23T12:15:27.504Z,18.47
2018-09-23T12:17:56.329Z,16.83
2018-09-23T12:20:24.747Z,18.33
2018-09-23T12:22:53.209Z,18.60
2018-09-23T12:25:22.093Z,18.10
2018-09-23T12:27:50.736Z,16.37
2018-09-23T12:30:19.444Z,16.87
2018-09-23T12:32:47.780Z,16.43
2018-09-23T12:35:16.089Z,17.30
2018-09-23T12:37:44.828Z,16.77
2018-09-23T12:40:13.686Z,20.57
2018-09-23T12:42:42.431Z,16.53
2018-09-23T12:45:10.767Z,16.63
2018-09-23T12:47:39.096Z,15.00
2018-09-23T12:50:07.580Z,14.83
2018-09-23T12:52:36.397Z,14.30
2018-09-23T12:55:05.334Z,13.37
2018-09-23T12:57:34.133Z,13.83
2018-09-23T13:00:02.914Z,13.07
2018-09-23T13:02:31.512Z,11.90
2018-09-23T13:04:59.918Z,12.37
2018-09-23T13:07:29.242Z,13.70
2018-09-23T13:09:58.821Z,13.73
2018-09-23T13:12:27.636Z,12.40
2018-09-23T13:14:56.037Z,13.57
2018-09-23T13:17:24.930Z,16.63
2018-09-23T13:19:53.441Z,14.57
2018-09-23T13:22:21.857Z,12.63
2018-09-23T13:24:50.633Z,13.00
2018-09-23T13:27:19.035Z,15.37
2018-09-23T13:29:47.906Z,15.30
2018-09-23T13:32:16.729Z,15.23
2018-09-23T13:34:45.110Z,14.33
2018-09-23T13:37:13.758Z,14.73
2018-09-23T13:39:42.024Z,13.67
2018-09-23T13:42:10.841Z,11.63
2018-09-23T13:44:39.674Z,11.47
2018-09-23T13:47:08.487Z,12.20
2018-09-23T13:49:37.286Z,12.90
2018-09-23T13:52:06.110Z,13.17
2018-09-23T13:54:34.854Z,13.93
2018-09-23T13:57:03.668Z,14.77
2018-09-23T13:59:32.531Z,14.97
2018-09-23T14:02:01.273Z,15.43
2018-09-23T14:04:30.039Z,14.83
2018-09-23T14:06:58.950Z,14.30
2018-09-23T14:09:27.813Z,14.43
2018-09-23T14:11:56.814Z,14.13
2018-09-23T14:14:25.256Z,9.40
2018-09-23T14:16:54.009Z,9.23
2018-09-23T14:19:22.446Z,8.73
2018-09-23T14:21:51.262Z,8.23
2018-09-23T14:24:20.064Z,9.07
2018-09-23T14:26:48.950Z,7.97
2018-09-23T14:29:17.741Z,8.13
2018-09-23T14:31:46.088Z,7.77
2018-09-23T14:34:14.828Z,8.03
2018-09-23T14:36:43.209Z,10.30
2018-09-23T14:39:11.952Z,12.83
2018-09-23T14:41:40.620Z,8.67
2018-09-23T14:44:09.110Z,8.30
2018-09-23T14:46:37.942Z,7.80
2018-09-23T14:49:06.666Z,6.90
2018-09-23T14:51:35.046Z,5.57
2018-09-23T14:54:03.473Z,6.73
2018-09-23T14:56:32.226Z,7.10
2018-09-23T14:59:00.690Z,7.43
2018-09-23T15:01:29.366Z,7.97
2018-09-23T15:03:58.144Z,7.60
2018-09-23T15:06:26.512Z,7.67
2018-09-23T15:08:55.251Z,8.17
2018-09-23T15:11:23.557Z,7.90
2018-09-23T15:13:52.328Z,8.40
2018-09-23T15:16:21.040Z,8.20
2018-09-23T15:18:49.726Z,7.43
2018-09-23T15:21:18.447Z,8.07
2018-09-23T15:23:47.163Z,7.73
2018-09-23T15:26:15.861Z,5.90
2018-09-23T15:28:44.503Z,5.17
2018-09-23T15:31:12.837Z,5.50
2018-09-23T15:33:41.549Z,4.70
2018-09-23T15:36:10.008Z,4.40
2018-09-23T15:38:38.697Z,4.10
2018-09-23T15:41:07.764Z,3.43
2018-09-23T15:43:36.409Z,3.23
2018-09-23T15:46:04.726Z,3.20
2018-09-23T15:48:33.112Z,3.80
2018-09-23T15:51:01.787Z,3.10
2018-09-23T15:53:30.676Z,3.20
2018-09-23T15:55:59.034Z,2.60
2018-09-23T15:58:27.820Z,2.83
2018-09-23T16:00:56.545Z,2.67
2018-09-23T16:03:25.209Z,2.80
2018-09-23T16:05:53.893Z,2.67
2018-09-23T16:08:22.588Z,2.77
2018-09-23T16:10:51.321Z,3.27
2018-09-23T16:13:20.071Z,3.30
2018-09-23T16:15:48.422Z,3.10
2018-09-23T16:18:17.175Z,3.07
2018-09-23T16:20:45.494Z,3.57
2018-09-23T16:23:14.214Z,3.10
2018-09-23T16:25:43.046Z,4.13
2018-09-23T16:28:11.843Z,4.57
2018-09-23T16:30:40.594Z,5.57
2018-09-23T16:33:09.288Z,6.83
2018-09-23T16:35:37.991Z,6.60
2018-09-23T16:38:06.643Z,7.53
2018-09-23T16:40:35.383Z,7.30
2018-09-23T16:43:04.140Z,7.97
2018-09-23T16:45:32.525Z,8.20
2018-09-23T16:48:01.384Z,9.43
2018-09-23T16:50:30.152Z,8.20
2018-09-23T16:52:58.830Z,7.97
2018-09-23T16:55:27.585Z,8.40
2018-09-23T16:57:56.325Z,8.57
2018-09-23T17:00:24.691Z,7.40
2018-09-23T17:02:53.385Z,7.83
2018-09-23T17:05:22.139Z,7.50
2018-09-23T17:07:50.448Z,7.80
2018-09-23T17:10:19.203Z,8.23
2018-09-23T17:12:47.518Z,8.53
2018-09-23T17:15:16.305Z,8.07
2018-09-23T17:17:45.050Z,7.80
2018-09-23T17:20:13.745Z,7.63
2018-09-23T17:22:42.421Z,7.10
2018-09-23T17:25:11.102Z,7.43
2018-09-23T17:27:39.799Z,7.57
2018-09-23T17:30:23.506Z,8.17
2018-09-23T17:32:52.176Z,7.60
2018-09-23T17:35:20.588Z,6.93
2018-09-23T17:37:49.333Z,7.17
2018-09-23T17:40:18.123Z,5.63
2018-09-23T17:42:46.514Z,5.03
2018-09-23T17:45:15.208Z,5.60
2018-09-23T17:47:43.878Z,5.40
2018-09-23T17:50:12.372Z,4.50
2018-09-23T17:52:41.138Z,4.73
2018-09-23T17:55:09.444Z,4.80
2018-09-23T17:57:38.272Z,4.70
2018-09-23T18:00:06.699Z,4.83
2018-09-23T18:02:35.482Z,5.40
2018-09-23T18:05:04.297Z,5.40
2018-09-23T18:07:32.987Z,5.60
2018-09-23T18:10:01.683Z,4.17
2018-09-23T18:12:30.362Z,4.37
2018-09-23T18:14:59.180Z,4.93
2018-09-23T18:17:28.805Z,2.80
2018-09-23T18:19:57.246Z,2.93
2018-09-23T18:22:25.696Z,2.40
2018-09-23T18:24:54.798Z,2.90
2018-09-23T18:27:23.254Z,2.77
2018-09-23T18:29:52.011Z,3.00
2018-09-23T18:32:20.299Z,3.70
2018-09-23T18:34:49.042Z,3.27
2018-09-23T18:37:17.885Z,4.53
2018-09-23T18:39:46.625Z,4.57
2018-09-23T18:42:15.298Z,6.03
2018-09-23T18:44:43.950Z,6.90
2018-09-23T18:47:12.656Z,7.43
2018-09-23T18:49:41.148Z,7.73
2018-09-23T18:52:10.021Z,7.00
2018-09-23T18:54:43.699Z,6.80
2018-09-23T18:57:12.451Z,6.07
2018-09-23T18:59:40.990Z,6.53
2018-09-23T19:02:09.729Z,5.50
2018-09-23T19:04:38.511Z,5.13
2018-09-23T19:07:07.324Z,4.67
2018-09-23T19:09:35.788Z,4.43
2018-09-23T19:12:04.595Z,4.23
2018-09-23T19:14:33.547Z,4.27
2018-09-23T19:17:02.273Z,4.40
2018-09-23T19:19:36.201Z,4.90
2018-09-23T19:22:08.665Z,4.83
2018-09-23T19:24:37.022Z,4.17
2018-09-23T19:27:05.376Z,4.60
2018-09-23T19:29:33.886Z,4.90
2018-09-23T19:32:02.260Z,5.20
2018-09-23T19:34:30.964Z,4.93
2018-09-23T19:36:59.671Z,4.93
2018-09-23T19:39:28.119Z,5.67
2018-09-23T19:41:56.711Z,5.30
2018-09-23T19:44:25.433Z,5.70
2018-09-23T19:46:54.194Z,5.27
2018-09-23T19:49:22.888Z,5.57
2018-09-23T19:51:51.265Z,6.10
2018-09-23T19:54:19.928Z,6.20
2018-09-23T19:56:49.258Z,6.23
2018-09-23T19:59:17.540Z,5.97
2018-09-23T20:01:46.289Z,7.40
2018-09-23T20:04:15.027Z,7.03
2018-09-23T20:06:43.783Z,7.13
2018-09-23T20:09:12.164Z,7.27
2018-09-23T20:11:40.902Z,6.93
2018-09-23T20:14:09.396Z,6.17
2018-09-23T20:16:37.833Z,6.43
2018-09-23T20:19:07.283Z,7.03
2018-09-23T20:21:36.669Z,7.30
2018-09-23T20:24:05.054Z,7.00
2018-09-23T20:26:33.842Z,6.73
2018-09-23T20:29:02.534Z,6.30
2018-09-23T20:31:31.168Z,5.90
2018-09-23T20:33:59.820Z,5.80
2018-09-23T20:36:28.453Z,5.90
2018-09-23T20:38:57.163Z,6.57
2018-09-23T20:41:25.806Z,5.50
2018-09-23T20:43:54.578Z,5.20
2018-09-23T20:46:23.284Z,4.93
2018-09-23T20:48:51.976Z,7.20
2018-09-23T20:51:20.689Z,5.20
2018-09-23T20:53:49.457Z,5.17
2018-09-23T20:56:18.122Z,4.50
2018-09-23T20:58:46.989Z,4.90
2018-09-23T21:01:15.857Z,5.40
2018-09-23T21:03:44.173Z,4.90
2018-09-23T21:06:12.826Z,5.47
2018-09-23T21:08:41.510Z,5.33
2018-09-23T21:11:09.873Z,4.70
2018-09-23T21:13:38.559Z,4.70
2018-09-23T21:16:06.837Z,4.70
2018-09-23T21:18:35.513Z,4.10
2018-09-23T21:21:04.234Z,4.20
2018-09-23T21:23:32.903Z,4.83
2018-09-23T21:26:01.236Z,4.00
2018-09-23T21:28:29.885Z,3.27
2018-09-23T21:30:58.634Z,3.40
2018-09-23T21:33:26.945Z,3.50
2018-09-23T21:35:55.601Z,2.83
2018-09-23T21:38:23.945Z,3.50
2018-09-23T21:40:52.645Z,3.40
2018-09-23T21:43:21.297Z,2.80
2018-09-23T21:45:49.664Z,3.07
2018-09-23T21:48:17.950Z,2.50
2018-09-23T21:50:46.644Z,2.60
2018-09-23T21:53:15.277Z,2.60
2018-09-23T21:55:43.632Z,2.60
2018-09-23T21:58:12.468Z,2.50
2018-09-23T22:00:41.701Z,2.73
2018-09-23T22:03:11.172Z,2.90
2018-09-23T22:05:40.208Z,2.50
2018-09-23T22:08:09.479Z,2.40
2018-09-23T22:10:38.165Z,2.43
2018-09-23T22:13:07.077Z,2.67
2018-09-23T22:15:35.740Z,3.30
2018-09-23T22:18:04.488Z,2.70
2018-09-23T22:20:32.784Z,2.53
2018-09-23T22:23:01.448Z,2.60
2018-09-23T22:25:30.082Z,2.80
2018-09-23T22:27:58.432Z,2.40
2018-09-23T22:30:27.079Z,2.80
2018-09-23T22:32:55.348Z,2.50
2018-09-23T22:35:24.012Z,2.43
2018-09-23T22:37:52.702Z,2.57
2018-09-23T22:40:21.420Z,2.40
2018-09-23T22:42:49.748Z,2.33
2018-09-23T22:45:18.444Z,2.70
2018-09-23T22:47:46.730Z,2.20
2018-09-23T22:50:15.421Z,2.20
2018-09-23T22:52:44.100Z,2.37
2018-09-23T22:55:12.802Z,1.90
2018-09-23T22:57:41.156Z,2.10
2018-09-23T23:00:09.957Z,2.03
2018-09-23T23:02:38.639Z,2.63
2018-09-23T23:05:07.483Z,2.40
2018-09-23T23:07:36.173Z,2.10
2018-09-23T23:10:04.907Z,1.77
2018-09-23T23:12:33.558Z,1.80
2018-09-23T23:15:01.824Z,1.97
2018-09-23T23:17:30.184Z,1.80
2018-09-23T23:19:58.844Z,1.80
2018-09-23T23:22:27.521Z,2.20
2018-09-23T23:24:56.195Z,2.00
2018-09-23T23:27:24.489Z,1.90
2018-09-23T23:29:52.776Z,1.90
2018-09-23T23:32:21.443Z,1.87
2018-09-23T23:34:50.084Z,1.90
2018-09-23T23:37:18.752Z,1.73
2018-09-23T23:39:47.402Z,1.80
2018-09-23T23:42:15.686Z,1.67
2018-09-23T23:44:44.372Z,1.87
2018-09-23T23:47:12.747Z,2.40
2018-09-23T23:49:41.408Z,1.90
2018-09-23T23:52:10.117Z,2.30
2018-09-23T23:54:38.454Z,2.37
2018-09-23T23:57:07.124Z,1.93
2018-09-23T23:59:35.827Z,2.00
